Terminal Aerodrome Forecast
Issued by NWS Charleston, WV

Home | Current Version | Previous Version | Text Only | Print | Product List | Glossary On
Versions: 1 2 3 4 5 6 7 8 9 10 11 12 13 14 15 16 17 18 19 20 21 22 23 24 25 26 27 28 29 30 31 32 33 34 35 36
000
FTUS41 KRLX 290751 AAA
TAFCRW
TAF AMD
KCRW 290751Z 2908/3006 00000KT 2SM BR SCT001 BKN008 BKN015
      TEMPO 2908/2912 3/4SM BR SCT001 BKN015
     FM291200 00000KT 2SM BR SCT001 BKN006
     FM291400 00000KT 3SM BR BKN008
     FM291600 00000KT 6SM BR HZ BKN015
     FM291900 24004KT P6SM BKN040
     FM300100 00000KT 4SM BR BKN050
     FM300500 VRB03KT 1SM BR BKN001=

USA.gov is the U.S. government's official web portal to all federal, state and local government web resources and services.